sensor_id;sensor_type;location;lat;lon;timestamp;P1;durP1;ratioP1;P2;durP2;ratioP2
20348;SDS011;10332;50.208;18.988;2022-09-12T00:03:45;9.10;;;7.55;;
20348;SDS011;10332;50.208;18.988;2022-09-12T00:06:18;8.55;;;6.90;;
20348;SDS011;10332;50.208;18.988;2022-09-12T00:08:56;9.30;;;6.82;;
20348;SDS011;10332;50.208;18.988;2022-09-12T00:11:35;9.13;;;7.15;;
20348;SDS011;10332;50.208;18.988;2022-09-12T00:14:04;8.52;;;7.00;;
20348;SDS011;10332;50.208;18.988;2022-09-12T00:16:34;9.73;;;7.57;;
20348;SDS011;10332;50.208;18.988;2022-09-12T00:19:03;9.57;;;7.07;;
20348;SDS011;10332;50.208;18.988;2022-09-12T00:21:32;8.50;;;6.88;;
20348;SDS011;10332;50.208;18.988;2022-09-12T00:24:01;7.93;;;5.90;;
20348;SDS011;10332;50.208;18.988;2022-09-12T00:26:30;7.88;;;6.03;;
20348;SDS011;10332;50.208;18.988;2022-09-12T00:28:58;7.93;;;5.82;;
20348;SDS011;10332;50.208;18.988;2022-09-12T00:31:25;8.75;;;6.10;;
20348;SDS011;10332;50.208;18.988;2022-09-12T00:33:54;12.10;;;7.97;;
20348;SDS011;10332;50.208;18.988;2022-09-12T00:36:26;9.93;;;7.32;;
20348;SDS011;10332;50.208;18.988;2022-09-12T00:38:55;9.50;;;7.15;;
20348;SDS011;10332;50.208;18.988;2022-09-12T00:44:02;7.28;;;6.10;;
20348;SDS011;10332;50.208;18.988;2022-09-12T00:52:28;9.20;;;6.97;;
20348;SDS011;10332;50.208;18.988;2022-09-12T00:55:21;8.00;;;6.72;;
20348;SDS011;10332;50.208;18.988;2022-09-12T00:57:54;10.02;;;7.60;;
20348;SDS011;10332;50.208;18.988;2022-09-12T01:00:30;13.77;;;8.52;;
20348;SDS011;10332;50.208;18.988;2022-09-12T01:03:02;9.98;;;7.85;;
20348;SDS011;10332;50.208;18.988;2022-09-12T01:05:35;10.48;;;7.60;;
20348;SDS011;10332;50.208;18.988;2022-09-12T01:08:10;7.20;;;5.88;;
20348;SDS011;10332;50.208;18.988;2022-09-12T01:10:38;10.35;;;7.97;;
20348;SDS011;10332;50.208;18.988;2022-09-12T01:13:08;9.95;;;7.82;;
20348;SDS011;10332;50.208;18.988;2022-09-12T01:15:37;10.65;;;8.15;;
20348;SDS011;10332;50.208;18.988;2022-09-12T01:33:05;10.63;;;7.22;;
20348;SDS011;10332;50.208;18.988;2022-09-12T01:38:58;10.30;;;8.07;;
20348;SDS011;10332;50.208;18.988;2022-09-12T01:44:42;10.38;;;8.02;;
20348;SDS011;10332;50.208;18.988;2022-09-12T01:50:06;10.70;;;8.68;;
20348;SDS011;10332;50.208;18.988;2022-09-12T01:52:55;10.32;;;8.80;;
20348;SDS011;10332;50.208;18.988;2022-09-12T01:55:41;9.15;;;7.88;;
20348;SDS011;10332;50.208;18.988;2022-09-12T01:58:21;10.77;;;8.70;;
20348;SDS011;10332;50.208;18.988;2022-09-12T02:01:10;11.30;;;9.30;;
20348;SDS011;10332;50.208;18.988;2022-09-12T02:04:05;9.40;;;8.05;;
20348;SDS011;10332;50.208;18.988;2022-09-12T02:06:54;9.93;;;8.50;;
20348;SDS011;10332;50.208;18.988;2022-09-12T02:12:24;11.23;;;8.95;;
20348;SDS011;10332;50.208;18.988;2022-09-12T02:15:01;10.25;;;8.95;;
20348;SDS011;10332;50.208;18.988;2022-09-12T02:17:38;9.80;;;8.40;;
20348;SDS011;10332;50.208;18.988;2022-09-12T02:23:07;10.40;;;9.25;;
20348;SDS011;10332;50.208;18.988;2022-09-12T02:25:42;11.30;;;8.88;;
20348;SDS011;10332;50.208;18.988;2022-09-12T02:28:15;9.75;;;8.32;;
20348;SDS011;10332;50.208;18.988;2022-09-12T02:31:02;10.82;;;7.93;;
20348;SDS011;10332;50.208;18.988;2022-09-12T02:39:55;9.10;;;7.55;;
20348;SDS011;10332;50.208;18.988;2022-09-12T02:42:23;13.10;;;8.00;;
20348;SDS011;10332;50.208;18.988;2022-09-12T02:44:51;8.15;;;6.95;;
20348;SDS011;10332;50.208;18.988;2022-09-12T02:47:23;8.90;;;7.30;;
20348;SDS011;10332;50.208;18.988;2022-09-12T02:50:07;7.97;;;6.95;;
20348;SDS011;10332;50.208;18.988;2022-09-12T02:52:35;10.32;;;7.78;;
20348;SDS011;10332;50.208;18.988;2022-09-12T02:55:04;9.35;;;7.53;;
20348;SDS011;10332;50.208;18.988;2022-09-12T02:57:33;7.38;;;6.30;;
20348;SDS011;10332;50.208;18.988;2022-09-12T03:00:00;10.07;;;7.55;;
20348;SDS011;10332;50.208;18.988;2022-09-12T03:08:32;8.00;;;7.00;;
20348;SDS011;10332;50.208;18.988;2022-09-12T03:14:17;8.60;;;7.70;;
20348;SDS011;10332;50.208;18.988;2022-09-12T03:19:53;8.98;;;6.78;;
20348;SDS011;10332;50.208;18.988;2022-09-12T03:22:48;7.75;;;6.18;;
20348;SDS011;10332;50.208;18.988;2022-09-12T03:25:34;8.27;;;7.13;;
20348;SDS011;10332;50.208;18.988;2022-09-12T03:28:15;8.82;;;7.93;;
20348;SDS011;10332;50.208;18.988;2022-09-12T03:30:46;7.40;;;6.70;;
20348;SDS011;10332;50.208;18.988;2022-09-12T03:33:18;8.57;;;7.00;;
20348;SDS011;10332;50.208;18.988;2022-09-12T03:35:50;9.70;;;6.88;;
20348;SDS011;10332;50.208;18.988;2022-09-12T03:38:20;8.35;;;6.15;;
20348;SDS011;10332;50.208;18.988;2022-09-12T03:40:47;6.65;;;5.88;;
20348;SDS011;10332;50.208;18.988;2022-09-12T03:43:20;7.90;;;6.78;;
20348;SDS011;10332;50.208;18.988;2022-09-12T03:45:50;10.77;;;8.05;;
20348;SDS011;10332;50.208;18.988;2022-09-12T03:48:18;9.45;;;6.60;;
20348;SDS011;10332;50.208;18.988;2022-09-12T03:50:46;10.55;;;6.95;;
20348;SDS011;10332;50.208;18.988;2022-09-12T03:53:13;9.07;;;7.13;;
20348;SDS011;10332;50.208;18.988;2022-09-12T03:55:43;7.65;;;6.72;;
20348;SDS011;10332;50.208;18.988;2022-09-12T03:58:11;8.32;;;6.38;;
20348;SDS011;10332;50.208;18.988;2022-09-12T04:00:38;9.65;;;6.80;;
20348;SDS011;10332;50.208;18.988;2022-09-12T04:03:06;12.23;;;8.43;;
20348;SDS011;10332;50.208;18.988;2022-09-12T04:05:34;10.57;;;9.23;;
20348;SDS011;10332;50.208;18.988;2022-09-12T04:08:02;9.52;;;8.52;;
20348;SDS011;10332;50.208;18.988;2022-09-12T04:10:30;10.25;;;9.05;;
20348;SDS011;10332;50.208;18.988;2022-09-12T04:12:57;9.70;;;7.32;;
20348;SDS011;10332;50.208;18.988;2022-09-12T04:15:25;9.32;;;7.63;;
20348;SDS011;10332;50.208;18.988;2022-09-12T04:17:52;8.68;;;7.43;;
20348;SDS011;10332;50.208;18.988;2022-09-12T04:20:19;7.07;;;6.13;;
20348;SDS011;10332;50.208;18.988;2022-09-12T04:22:47;9.50;;;8.27;;
20348;SDS011;10332;50.208;18.988;2022-09-12T04:25:14;8.98;;;7.93;;
20348;SDS011;10332;50.208;18.988;2022-09-12T04:27:42;10.50;;;8.95;;
20348;SDS011;10332;50.208;18.988;2022-09-12T04:30:10;12.98;;;8.77;;
20348;SDS011;10332;50.208;18.988;2022-09-12T04:32:38;13.43;;;9.73;;
20348;SDS011;10332;50.208;18.988;2022-09-12T04:35:06;8.23;;;7.38;;
20348;SDS011;10332;50.208;18.988;2022-09-12T04:37:34;11.93;;;8.43;;
20348;SDS011;10332;50.208;18.988;2022-09-12T04:40:01;8.75;;;7.05;;
20348;SDS011;10332;50.208;18.988;2022-09-12T04:42:28;9.40;;;7.78;;
20348;SDS011;10332;50.208;18.988;2022-09-12T04:44:56;8.48;;;7.28;;
20348;SDS011;10332;50.208;18.988;2022-09-12T04:47:23;9.35;;;7.60;;
20348;SDS011;10332;50.208;18.988;2022-09-12T04:49:50;8.50;;;7.20;;
20348;SDS011;10332;50.208;18.988;2022-09-12T04:52:18;8.73;;;7.60;;
20348;SDS011;10332;50.208;18.988;2022-09-12T04:54:45;7.60;;;6.70;;
20348;SDS011;10332;50.208;18.988;2022-09-12T04:57:12;9.00;;;7.43;;
20348;SDS011;10332;50.208;18.988;2022-09-12T04:59:40;10.13;;;8.52;;
20348;SDS011;10332;50.208;18.988;2022-09-12T05:02:08;9.85;;;7.60;;
20348;SDS011;10332;50.208;18.988;2022-09-12T05:04:35;12.70;;;9.82;;
20348;SDS011;10332;50.208;18.988;2022-09-12T05:07:03;13.45;;;9.73;;
20348;SDS011;10332;50.208;18.988;2022-09-12T05:09:31;12.45;;;10.60;;
20348;SDS011;10332;50.208;18.988;2022-09-12T05:11:58;16.42;;;12.45;;
20348;SDS011;10332;50.208;18.988;2022-09-12T05:14:32;13.60;;;11.43;;
20348;SDS011;10332;50.208;18.988;2022-09-12T05:17:00;14.00;;;9.13;;
20348;SDS011;10332;50.208;18.988;2022-09-12T05:19:31;13.38;;;10.65;;
20348;SDS011;10332;50.208;18.988;2022-09-12T05:21:59;11.98;;;9.32;;
20348;SDS011;10332;50.208;18.988;2022-09-12T05:24:26;10.07;;;8.75;;
20348;SDS011;10332;50.208;18.988;2022-09-12T05:26:53;15.10;;;11.27;;
20348;SDS011;10332;50.208;18.988;2022-09-12T05:29:21;20.27;;;16.40;;
20348;SDS011;10332;50.208;18.988;2022-09-12T05:31:48;17.27;;;12.93;;
20348;SDS011;10332;50.208;18.988;2022-09-12T05:34:18;19.38;;;15.10;;
20348;SDS011;10332;50.208;18.988;2022-09-12T05:36:46;15.43;;;11.27;;
20348;SDS011;10332;50.208;18.988;2022-09-12T05:39:15;15.07;;;10.52;;
20348;SDS011;10332;50.208;18.988;2022-09-12T05:41:42;12.10;;;8.65;;
20348;SDS011;10332;50.208;18.988;2022-09-12T05:44:10;12.70;;;10.35;;
20348;SDS011;10332;50.208;18.988;2022-09-12T05:46:41;9.68;;;8.68;;
20348;SDS011;10332;50.208;18.988;2022-09-12T05:49:11;10.23;;;7.85;;
20348;SDS011;10332;50.208;18.988;2022-09-12T05:51:42;9.57;;;7.03;;
20348;SDS011;10332;50.208;18.988;2022-09-12T05:54:12;9.40;;;7.57;;
20348;SDS011;10332;50.208;18.988;2022-09-12T05:56:43;9.68;;;6.93;;
20348;SDS011;10332;50.208;18.988;2022-09-12T05:59:13;9.30;;;6.80;;
20348;SDS011;10332;50.208;18.988;2022-09-12T06:01:46;8.43;;;6.57;;
20348;SDS011;10332;50.208;18.988;2022-09-12T06:04:14;9.02;;;7.57;;
20348;SDS011;10332;50.208;18.988;2022-09-12T06:06:43;8.45;;;6.55;;
20348;SDS011;10332;50.208;18.988;2022-09-12T06:09:12;11.48;;;7.47;;
20348;SDS011;10332;50.208;18.988;2022-09-12T06:11:42;10.38;;;8.40;;
20348;SDS011;10332;50.208;18.988;2022-09-12T06:14:13;9.25;;;7.22;;
20348;SDS011;10332;50.208;18.988;2022-09-12T06:16:42;8.25;;;7.10;;
20348;SDS011;10332;50.208;18.988;2022-09-12T06:19:14;11.57;;;7.65;;
20348;SDS011;10332;50.208;18.988;2022-09-12T06:21:45;20.73;;;15.57;;
20348;SDS011;10332;50.208;18.988;2022-09-12T06:24:15;35.15;;;24.67;;
20348;SDS011;10332;50.208;18.988;2022-09-12T06:26:44;9.10;;;7.47;;
20348;SDS011;10332;50.208;18.988;2022-09-12T06:29:13;10.73;;;6.78;;
20348;SDS011;10332;50.208;18.988;2022-09-12T06:31:41;10.02;;;7.30;;
20348;SDS011;10332;50.208;18.988;2022-09-12T06:34:10;8.00;;;6.70;;
20348;SDS011;10332;50.208;18.988;2022-09-12T06:36:42;7.82;;;5.93;;
20348;SDS011;10332;50.208;18.988;2022-09-12T06:39:13;7.80;;;6.13;;
20348;SDS011;10332;50.208;18.988;2022-09-12T06:41:47;7.85;;;7.05;;
20348;SDS011;10332;50.208;18.988;2022-09-12T06:44:18;7.57;;;5.30;;
20348;SDS011;10332;50.208;18.988;2022-09-12T06:46:48;5.85;;;4.43;;
20348;SDS011;10332;50.208;18.988;2022-09-12T06:49:16;4.72;;;3.88;;
20348;SDS011;10332;50.208;18.988;2022-09-12T06:51:43;4.43;;;3.17;;
20348;SDS011;10332;50.208;18.988;2022-09-12T06:54:11;5.25;;;2.90;;
20348;SDS011;10332;50.208;18.988;2022-09-12T06:56:40;4.57;;;3.25;;
20348;SDS011;10332;50.208;18.988;2022-09-12T06:59:08;4.30;;;3.15;;
20348;SDS011;10332;50.208;18.988;2022-09-12T07:01:36;3.00;;;2.20;;
20348;SDS011;10332;50.208;18.988;2022-09-12T07:04:03;4.18;;;2.75;;
20348;SDS011;10332;50.208;18.988;2022-09-12T07:06:38;3.17;;;2.55;;
20348;SDS011;10332;50.208;18.988;2022-09-12T07:09:09;10.40;;;7.10;;
20348;SDS011;10332;50.208;18.988;2022-09-12T07:11:42;8.68;;;6.07;;
20348;SDS011;10332;50.208;18.988;2022-09-12T07:14:12;9.73;;;7.45;;
20348;SDS011;10332;50.208;18.988;2022-09-12T07:16:40;6.82;;;4.20;;
20348;SDS011;10332;50.208;18.988;2022-09-12T07:19:08;5.50;;;3.28;;
20348;SDS011;10332;50.208;18.988;2022-09-12T07:21:36;5.43;;;3.35;;
20348;SDS011;10332;50.208;18.988;2022-09-12T07:24:07;3.92;;;2.80;;
20348;SDS011;10332;50.208;18.988;2022-09-12T07:26:37;4.63;;;3.40;;
20348;SDS011;10332;50.208;18.988;2022-09-12T07:29:06;5.43;;;4.47;;
20348;SDS011;10332;50.208;18.988;2022-09-12T07:31:59;14.57;;;9.52;;
20348;SDS011;10332;50.208;18.988;2022-09-12T07:34:30;5.95;;;4.00;;
20348;SDS011;10332;50.208;18.988;2022-09-12T07:36:58;3.65;;;2.30;;
20348;SDS011;10332;50.208;18.988;2022-09-12T07:39:25;5.47;;;2.40;;
20348;SDS011;10332;50.208;18.988;2022-09-12T07:41:52;5.60;;;3.22;;
20348;SDS011;10332;50.208;18.988;2022-09-12T07:44:20;4.30;;;2.75;;
20348;SDS011;10332;50.208;18.988;2022-09-12T07:46:48;5.47;;;3.55;;
20348;SDS011;10332;50.208;18.988;2022-09-12T07:49:16;5.07;;;2.97;;
20348;SDS011;10332;50.208;18.988;2022-09-12T07:51:43;3.67;;;2.80;;
20348;SDS011;10332;50.208;18.988;2022-09-12T07:54:11;4.78;;;3.28;;
20348;SDS011;10332;50.208;18.988;2022-09-12T07:56:38;3.72;;;3.10;;
20348;SDS011;10332;50.208;18.988;2022-09-12T07:59:06;3.83;;;2.53;;
20348;SDS011;10332;50.208;18.988;2022-09-12T08:01:34;6.60;;;4.07;;
20348;SDS011;10332;50.208;18.988;2022-09-12T08:04:02;5.80;;;3.10;;
20348;SDS011;10332;50.208;18.988;2022-09-12T08:06:30;6.90;;;4.68;;
20348;SDS011;10332;50.208;18.988;2022-09-12T08:09:02;5.13;;;3.85;;
20348;SDS011;10332;50.208;18.988;2022-09-12T08:11:31;4.57;;;3.15;;
20348;SDS011;10332;50.208;18.988;2022-09-12T08:13:59;7.30;;;5.78;;
20348;SDS011;10332;50.208;18.988;2022-09-12T08:16:29;4.00;;;3.35;;
20348;SDS011;10332;50.208;18.988;2022-09-12T08:18:59;3.85;;;3.45;;
20348;SDS011;10332;50.208;18.988;2022-09-12T08:21:28;9.13;;;4.85;;
20348;SDS011;10332;50.208;18.988;2022-09-12T08:23:58;9.23;;;4.28;;
20348;SDS011;10332;50.208;18.988;2022-09-12T08:26:30;5.13;;;3.00;;
20348;SDS011;10332;50.208;18.988;2022-09-12T08:29:00;10.13;;;4.45;;
20348;SDS011;10332;50.208;18.988;2022-09-12T08:31:27;3.10;;;1.98;;
20348;SDS011;10332;50.208;18.988;2022-09-12T08:33:57;4.82;;;2.45;;
20348;SDS011;10332;50.208;18.988;2022-09-12T08:36:26;3.75;;;2.80;;
20348;SDS011;10332;50.208;18.988;2022-09-12T08:38:58;6.72;;;3.70;;
20348;SDS011;10332;50.208;18.988;2022-09-12T08:41:31;4.93;;;2.92;;
20348;SDS011;10332;50.208;18.988;2022-09-12T08:58:13;5.43;;;3.65;;
20348;SDS011;10332;50.208;18.988;2022-09-12T09:01:07;5.30;;;3.15;;
20348;SDS011;10332;50.208;18.988;2022-09-12T09:03:49;6.15;;;3.70;;
20348;SDS011;10332;50.208;18.988;2022-09-12T09:13:04;5.80;;;4.18;;
20348;SDS011;10332;50.208;18.988;2022-09-12T09:16:29;5.72;;;4.32;;
20348;SDS011;10332;50.208;18.988;2022-09-12T09:19:03;6.38;;;5.10;;
20348;SDS011;10332;50.208;18.988;2022-09-12T09:24:25;3.10;;;1.90;;
20348;SDS011;10332;50.208;18.988;2022-09-12T09:30:12;3.05;;;2.60;;
20348;SDS011;10332;50.208;18.988;2022-09-12T09:32:53;2.20;;;2.00;;
20348;SDS011;10332;50.208;18.988;2022-09-12T09:35:28;3.00;;;1.95;;
20348;SDS011;10332;50.208;18.988;2022-09-12T09:41:25;2.42;;;2.17;;
20348;SDS011;10332;50.208;18.988;2022-09-12T09:44:15;3.53;;;1.63;;
20348;SDS011;10332;50.208;18.988;2022-09-12T09:46:43;3.17;;;2.22;;
20348;SDS011;10332;50.208;18.988;2022-09-12T09:49:12;2.47;;;1.55;;
20348;SDS011;10332;50.208;18.988;2022-09-12T09:51:42;4.50;;;1.88;;
20348;SDS011;10332;50.208;18.988;2022-09-12T09:54:14;3.83;;;1.92;;
20348;SDS011;10332;50.208;18.988;2022-09-12T09:56:54;1.63;;;1.52;;
20348;SDS011;10332;50.208;18.988;2022-09-12T09:59:26;1.58;;;1.48;;
20348;SDS011;10332;50.208;18.988;2022-09-12T10:04:30;2.25;;;1.65;;
20348;SDS011;10332;50.208;18.988;2022-09-12T10:07:15;2.22;;;1.75;;
20348;SDS011;10332;50.208;18.988;2022-09-12T10:10:05;2.25;;;1.70;;
20348;SDS011;10332;50.208;18.988;2022-09-12T10:12:40;2.63;;;1.30;;
20348;SDS011;10332;50.208;18.988;2022-09-12T10:15:42;2.55;;;1.50;;
20348;SDS011;10332;50.208;18.988;2022-09-12T10:18:02;1.83;;;1.33;;
20348;SDS011;10332;50.208;18.988;2022-09-12T10:20:39;2.67;;;1.20;;
20348;SDS011;10332;50.208;18.988;2022-09-12T10:26:08;1.70;;;1.60;;
20348;SDS011;10332;50.208;18.988;2022-09-12T10:28:44;1.90;;;1.33;;
20348;SDS011;10332;50.208;18.988;2022-09-12T10:31:25;2.35;;;1.42;;
20348;SDS011;10332;50.208;18.988;2022-09-12T10:34:00;1.30;;;1.20;;
20348;SDS011;10332;50.208;18.988;2022-09-12T10:36:37;2.47;;;1.67;;
20348;SDS011;10332;50.208;18.988;2022-09-12T10:39:06;1.95;;;1.75;;
20348;SDS011;10332;50.208;18.988;2022-09-12T10:41:44;4.03;;;1.50;;
20348;SDS011;10332;50.208;18.988;2022-09-12T10:44:14;1.40;;;1.30;;
20348;SDS011;10332;50.208;18.988;2022-09-12T10:46:51;1.70;;;1.10;;
20348;SDS011;10332;50.208;18.988;2022-09-12T10:51:57;1.77;;;1.58;;
20348;SDS011;10332;50.208;18.988;2022-09-12T10:54:50;1.90;;;1.67;;
20348;SDS011;10332;50.208;18.988;2022-09-12T11:00:48;2.35;;;1.50;;
20348;SDS011;10332;50.208;18.988;2022-09-12T11:03:52;3.33;;;1.70;;
20348;SDS011;10332;50.208;18.988;2022-09-12T11:13:44;2.38;;;1.70;;
20348;SDS011;10332;50.208;18.988;2022-09-12T11:19:03;2.15;;;1.75;;
20348;SDS011;10332;50.208;18.988;2022-09-12T11:29:56;1.98;;;1.65;;
20348;SDS011;10332;50.208;18.988;2022-09-12T11:35:32;2.85;;;1.92;;
20348;SDS011;10332;50.208;18.988;2022-09-12T11:41:23;1.50;;;1.40;;
20348;SDS011;10332;50.208;18.988;2022-09-12T11:46:52;1.98;;;1.45;;
20348;SDS011;10332;50.208;18.988;2022-09-12T11:49:53;1.70;;;1.60;;
20348;SDS011;10332;50.208;18.988;2022-09-12T11:52:22;3.05;;;1.30;;
20348;SDS011;10332;50.208;18.988;2022-09-12T11:55:02;1.90;;;1.27;;
20348;SDS011;10332;50.208;18.988;2022-09-12T11:57:57;2.33;;;1.38;;
20348;SDS011;10332;50.208;18.988;2022-09-12T12:00:27;2.88;;;2.25;;
20348;SDS011;10332;50.208;18.988;2022-09-12T12:06:14;1.27;;;1.15;;
20348;SDS011;10332;50.208;18.988;2022-09-12T12:08:55;1.80;;;1.70;;
20348;SDS011;10332;50.208;18.988;2022-09-12T12:11:31;3.33;;;2.03;;
20348;SDS011;10332;50.208;18.988;2022-09-12T12:14:21;3.35;;;2.72;;
20348;SDS011;10332;50.208;18.988;2022-09-12T12:16:56;2.80;;;2.55;;
20348;SDS011;10332;50.208;18.988;2022-09-12T12:19:30;7.28;;;6.53;;
20348;SDS011;10332;50.208;18.988;2022-09-12T12:22:35;9.57;;;8.07;;
20348;SDS011;10332;50.208;18.988;2022-09-12T12:25:01;5.70;;;5.25;;
20348;SDS011;10332;50.208;18.988;2022-09-12T12:27:46;8.05;;;7.35;;
20348;SDS011;10332;50.208;18.988;2022-09-12T12:35:42;3.00;;;2.35;;
20348;SDS011;10332;50.208;18.988;2022-09-12T12:38:32;3.42;;;2.25;;
20348;SDS011;10332;50.208;18.988;2022-09-12T12:43:47;1.60;;;1.48;;
20348;SDS011;10332;50.208;18.988;2022-09-12T12:46:18;1.42;;;1.23;;
20348;SDS011;10332;50.208;18.988;2022-09-12T12:51:55;3.70;;;1.90;;
20348;SDS011;10332;50.208;18.988;2022-09-12T12:54:34;2.38;;;2.25;;
20348;SDS011;10332;50.208;18.988;2022-09-12T13:03:29;1.42;;;1.10;;
20348;SDS011;10332;50.208;18.988;2022-09-12T13:05:57;1.52;;;1.30;;
20348;SDS011;10332;50.208;18.988;2022-09-12T13:08:29;2.53;;;1.30;;
20348;SDS011;10332;50.208;18.988;2022-09-12T13:11:07;1.50;;;1.40;;
20348;SDS011;10332;50.208;18.988;2022-09-12T13:13:56;1.98;;;1.30;;
20348;SDS011;10332;50.208;18.988;2022-09-12T13:16:36;3.38;;;1.20;;
20348;SDS011;10332;50.208;18.988;2022-09-12T13:19:22;1.40;;;1.30;;
20348;SDS011;10332;50.208;18.988;2022-09-12T13:22:03;2.38;;;1.50;;
20348;SDS011;10332;50.208;18.988;2022-09-12T13:24:42;1.60;;;1.50;;
20348;SDS011;10332;50.208;18.988;2022-09-12T13:27:18;1.20;;;1.10;;
20348;SDS011;10332;50.208;18.988;2022-09-12T13:30:07;2.83;;;1.20;;
20348;SDS011;10332;50.208;18.988;2022-09-12T13:32:40;3.03;;;1.50;;
20348;SDS011;10332;50.208;18.988;2022-09-12T13:38:01;1.38;;;1.10;;
20348;SDS011;10332;50.208;18.988;2022-09-12T13:44:00;1.33;;;1.20;;
20348;SDS011;10332;50.208;18.988;2022-09-12T13:46:30;9.98;;;9.07;;
20348;SDS011;10332;50.208;18.988;2022-09-12T13:49:00;8.00;;;7.30;;
20348;SDS011;10332;50.208;18.988;2022-09-12T13:51:42;3.50;;;3.20;;
20348;SDS011;10332;50.208;18.988;2022-09-12T13:54:11;4.32;;;3.83;;
20348;SDS011;10332;50.208;18.988;2022-09-12T13:56:50;2.15;;;1.60;;
20348;SDS011;10332;50.208;18.988;2022-09-12T13:59:17;2.38;;;1.23;;
20348;SDS011;10332;50.208;18.988;2022-09-12T14:01:45;1.63;;;1.52;;
20348;SDS011;10332;50.208;18.988;2022-09-12T14:04:18;3.25;;;1.38;;
20348;SDS011;10332;50.208;18.988;2022-09-12T14:07:10;1.92;;;1.52;;
20348;SDS011;10332;50.208;18.988;2022-09-12T14:09:54;1.50;;;1.15;;
20348;SDS011;10332;50.208;18.988;2022-09-12T14:12:33;2.10;;;1.30;;
20348;SDS011;10332;50.208;18.988;2022-09-12T14:15:16;1.67;;;1.35;;
20348;SDS011;10332;50.208;18.988;2022-09-12T14:17:51;2.15;;;1.15;;
20348;SDS011;10332;50.208;18.988;2022-09-12T14:20:27;1.58;;;1.48;;
20348;SDS011;10332;50.208;18.988;2022-09-12T14:23:02;1.42;;;1.33;;
20348;SDS011;10332;50.208;18.988;2022-09-12T14:25:54;1.58;;;1.40;;
20348;SDS011;10332;50.208;18.988;2022-09-12T14:28:25;1.55;;;1.45;;
20348;SDS011;10332;50.208;18.988;2022-09-12T14:30:57;2.22;;;1.50;;
20348;SDS011;10332;50.208;18.988;2022-09-12T14:33:27;2.00;;;1.83;;
20348;SDS011;10332;50.208;18.988;2022-09-12T14:38:58;19.70;;;17.75;;
20348;SDS011;10332;50.208;18.988;2022-09-12T14:41:36;2.20;;;1.77;;
20348;SDS011;10332;50.208;18.988;2022-09-12T14:44:07;1.67;;;1.58;;
20348;SDS011;10332;50.208;18.988;2022-09-12T14:46:43;1.35;;;1.20;;
20348;SDS011;10332;50.208;18.988;2022-09-12T14:49:28;1.40;;;1.30;;
20348;SDS011;10332;50.208;18.988;2022-09-12T14:52:05;1.67;;;1.40;;
20348;SDS011;10332;50.208;18.988;2022-09-12T14:57:43;1.52;;;1.30;;
20348;SDS011;10332;50.208;18.988;2022-09-12T15:02:38;1.95;;;1.20;;
20348;SDS011;10332;50.208;18.988;2022-09-12T15:07:42;2.85;;;1.33;;
20348;SDS011;10332;50.208;18.988;2022-09-12T15:10:18;1.30;;;1.20;;
20348;SDS011;10332;50.208;18.988;2022-09-12T15:13:03;1.60;;;1.05;;
20348;SDS011;10332;50.208;18.988;2022-09-12T15:15:41;1.10;;;1.00;;
20348;SDS011;10332;50.208;18.988;2022-09-12T15:18:11;1.90;;;1.20;;
20348;SDS011;10332;50.208;18.988;2022-09-12T15:20:41;1.45;;;1.35;;
20348;SDS011;10332;50.208;18.988;2022-09-12T15:23:13;2.45;;;2.25;;
20348;SDS011;10332;50.208;18.988;2022-09-12T15:26:18;1.90;;;1.20;;
20348;SDS011;10332;50.208;18.988;2022-09-12T15:28:53;2.70;;;1.80;;
20348;SDS011;10332;50.208;18.988;2022-09-12T15:33:58;2.30;;;2.10;;
20348;SDS011;10332;50.208;18.988;2022-09-12T15:36:27;2.05;;;1.77;;
20348;SDS011;10332;50.208;18.988;2022-09-12T15:38:55;7.07;;;5.40;;
20348;SDS011;10332;50.208;18.988;2022-09-12T15:44:05;2.03;;;1.38;;
20348;SDS011;10332;50.208;18.988;2022-09-12T15:46:37;2.38;;;1.38;;
20348;SDS011;10332;50.208;18.988;2022-09-12T15:49:06;3.70;;;2.20;;
20348;SDS011;10332;50.208;18.988;2022-09-12T15:51:33;2.05;;;1.63;;
20348;SDS011;10332;50.208;18.988;2022-09-12T15:54:01;7.80;;;6.30;;
20348;SDS011;10332;50.208;18.988;2022-09-12T15:56:30;5.18;;;3.05;;
20348;SDS011;10332;50.208;18.988;2022-09-12T15:58:58;2.92;;;2.45;;
20348;SDS011;10332;50.208;18.988;2022-09-12T16:01:26;3.85;;;2.83;;
20348;SDS011;10332;50.208;18.988;2022-09-12T16:03:54;2.80;;;2.42;;
20348;SDS011;10332;50.208;18.988;2022-09-12T16:06:22;3.05;;;2.47;;
20348;SDS011;10332;50.208;18.988;2022-09-12T16:08:50;5.07;;;2.63;;
20348;SDS011;10332;50.208;18.988;2022-09-12T16:11:21;3.85;;;3.00;;
20348;SDS011;10332;50.208;18.988;2022-09-12T16:13:52;5.88;;;3.45;;
20348;SDS011;10332;50.208;18.988;2022-09-12T16:16:21;3.00;;;2.35;;
20348;SDS011;10332;50.208;18.988;2022-09-12T16:18:48;3.13;;;2.42;;
20348;SDS011;10332;50.208;18.988;2022-09-12T16:21:17;3.67;;;2.00;;
20348;SDS011;10332;50.208;18.988;2022-09-12T16:23:45;2.88;;;2.30;;
20348;SDS011;10332;50.208;18.988;2022-09-12T16:26:13;2.85;;;2.55;;
20348;SDS011;10332;50.208;18.988;2022-09-12T16:28:42;3.25;;;2.28;;
20348;SDS011;10332;50.208;18.988;2022-09-12T16:31:11;3.45;;;2.45;;
20348;SDS011;10332;50.208;18.988;2022-09-12T16:33:39;4.47;;;3.00;;
20348;SDS011;10332;50.208;18.988;2022-09-12T16:36:08;4.32;;;3.45;;
20348;SDS011;10332;50.208;18.988;2022-09-12T16:38:40;2.78;;;2.47;;
20348;SDS011;10332;50.208;18.988;2022-09-12T16:41:13;5.07;;;4.55;;
20348;SDS011;10332;50.208;18.988;2022-09-12T16:43:42;3.15;;;2.63;;
20348;SDS011;10332;50.208;18.988;2022-09-12T16:46:15;4.68;;;3.50;;
20348;SDS011;10332;50.208;18.988;2022-09-12T16:48:47;5.65;;;3.45;;
20348;SDS011;10332;50.208;18.988;2022-09-12T16:51:21;6.78;;;4.85;;
20348;SDS011;10332;50.208;18.988;2022-09-12T16:54:03;68.35;;;45.75;;
20348;SDS011;10332;50.208;18.988;2022-09-12T16:56:30;18.13;;;13.18;;
20348;SDS011;10332;50.208;18.988;2022-09-12T16:58:57;6.88;;;5.32;;
20348;SDS011;10332;50.208;18.988;2022-09-12T17:01:25;4.55;;;2.95;;
20348;SDS011;10332;50.208;18.988;2022-09-12T17:03:53;5.28;;;2.78;;
20348;SDS011;10332;50.208;18.988;2022-09-12T17:06:23;4.13;;;2.58;;
20348;SDS011;10332;50.208;18.988;2022-09-12T17:08:54;5.60;;;2.80;;
20348;SDS011;10332;50.208;18.988;2022-09-12T17:11:33;13.07;;;9.95;;
20348;SDS011;10332;50.208;18.988;2022-09-12T17:14:04;13.88;;;10.82;;
20348;SDS011;10332;50.208;18.988;2022-09-12T17:16:38;6.65;;;4.97;;
20348;SDS011;10332;50.208;18.988;2022-09-12T17:19:14;5.60;;;2.80;;
20348;SDS011;10332;50.208;18.988;2022-09-12T17:21:52;4.53;;;2.65;;
20348;SDS011;10332;50.208;18.988;2022-09-12T17:24:21;5.03;;;2.85;;
20348;SDS011;10332;50.208;18.988;2022-09-12T17:26:49;4.25;;;2.97;;
20348;SDS011;10332;50.208;18.988;2022-09-12T17:29:17;5.32;;;2.80;;
20348;SDS011;10332;50.208;18.988;2022-09-12T17:31:46;3.20;;;2.70;;
20348;SDS011;10332;50.208;18.988;2022-09-12T17:34:14;4.53;;;2.83;;
20348;SDS011;10332;50.208;18.988;2022-09-12T17:36:43;5.05;;;2.80;;
20348;SDS011;10332;50.208;18.988;2022-09-12T17:39:14;3.55;;;2.90;;
20348;SDS011;10332;50.208;18.988;2022-09-12T17:41:41;4.40;;;3.15;;
20348;SDS011;10332;50.208;18.988;2022-09-12T17:44:13;5.55;;;3.22;;
20348;SDS011;10332;50.208;18.988;2022-09-12T17:46:41;6.30;;;4.32;;
20348;SDS011;10332;50.208;18.988;2022-09-12T17:49:10;5.88;;;3.83;;
20348;SDS011;10332;50.208;18.988;2022-09-12T17:51:40;4.05;;;3.13;;
20348;SDS011;10332;50.208;18.988;2022-09-12T17:54:10;5.18;;;3.30;;
20348;SDS011;10332;50.208;18.988;2022-09-12T17:56:42;3.60;;;2.83;;